0IN4 weather

Air Park Field
Woodburn, Indiana, United States

Public forecast

Using degrees Fahrenheit for public forecast. Weather courtesy of forecast.io.

METAR (pilot weather report)

Closest report is De Kalb County Airport, 12.0 nm (22.2 km) NNW. Retrieved 2019/04/25 22:15 UTC (0 seconds ago):

KGWB 252215Z AUTO 02003KT 4SM -RA BKN015 BKN021 OVC029 13/13 A2972 RMK AO2 P0002

TAF (pilot weather forecast)

Closest forecast is Fort Wayne International Airport, 14.4 nm (26.6 km) SW. Retrieved 2019/04/25 18:45 UTC (3 hours ago):

TAF KFWA 251742Z 2518/2618 07004KT P6SM VCSH BKN013 OVC040 FM252200 11005KT 4SM SHRA BR OVC007 FM260600 33012G20KT 5SM SHRA BR OVC006 FM261400 33015G25KT P6SM BKN020 FM261700 34012G18KT P6SM SCT035